createdAt,value
2019-02-05T00:01:21.693Z,4.20
2019-02-05T00:04:26.754Z,4.20
2019-02-05T00:07:31.703Z,4.20
2019-02-05T00:10:36.744Z,4.20
2019-02-05T00:13:41.984Z,4.30
2019-02-05T00:16:47.097Z,4.40
2019-02-05T00:19:52.187Z,4.40
2019-02-05T00:22:57.542Z,4.50
2019-02-05T00:26:06.200Z,4.50
2019-02-05T00:29:09.130Z,4.40
2019-02-05T00:32:14.462Z,4.50
2019-02-05T00:35:19.399Z,4.50
2019-02-05T00:38:24.379Z,4.40
2019-02-05T00:41:29.614Z,4.40
2019-02-05T00:44:34.694Z,4.40
2019-02-05T00:47:39.757Z,4.40
2019-02-05T00:50:44.835Z,4.50
2019-02-05T00:53:50.184Z,4.50
2019-02-05T00:56:55.257Z,4.60
2019-02-05T01:00:00.194Z,4.60
2019-02-05T01:03:06.576Z,4.50
2019-02-05T01:06:11.866Z,4.50
2019-02-05T01:09:16.855Z,4.30
2019-02-05T01:12:21.900Z,4.20
2019-02-05T01:15:27.393Z,4.20
2019-02-05T01:18:32.459Z,4.20
2019-02-05T01:21:37.350Z,4.30
2019-02-05T01:24:42.209Z,4.20
2019-02-05T01:27:47.883Z,4.30
2019-02-05T01:30:52.684Z,4.30
2019-02-05T01:33:57.733Z,4.20
2019-02-05T01:37:03.021Z,4.20
2019-02-05T01:40:09.559Z,4.10
2019-02-05T01:43:14.559Z,4.10
2019-02-05T01:46:19.751Z,4.10
2019-02-05T01:49:24.668Z,4.00
2019-02-05T01:52:30.050Z,4.00
2019-02-05T01:55:35.152Z,4.00
2019-02-05T01:58:40.557Z,4.00
2019-02-05T02:01:45.339Z,4.00
2019-02-05T02:04:50.408Z,4.00
2019-02-05T02:07:55.505Z,4.00
2019-02-05T02:11:00.488Z,4.00
2019-02-05T02:14:05.600Z,4.00
2019-02-05T02:17:10.548Z,4.00
2019-02-05T02:20:17.350Z,4.10
2019-02-05T02:23:22.520Z,4.10
2019-02-05T02:26:27.595Z,4.10
2019-02-05T02:29:32.658Z,4.10
2019-02-05T02:32:37.587Z,4.20
2019-02-05T02:35:42.643Z,4.10
2019-02-05T02:38:47.739Z,4.10
2019-02-05T02:41:52.827Z,4.00
2019-02-05T02:44:58.103Z,4.10
2019-02-05T02:48:03.079Z,4.00
2019-02-05T02:51:08.437Z,4.00
2019-02-05T02:54:13.678Z,3.90
2019-02-05T02:57:18.964Z,3.90
2019-02-05T03:00:24.099Z,4.00
2019-02-05T03:03:29.556Z,4.00
2019-02-05T03:06:34.824Z,4.00
2019-02-05T03:09:40.271Z,4.00
2019-02-05T03:12:45.269Z,4.00
2019-02-05T03:15:50.401Z,4.00
2019-02-05T03:18:55.321Z,4.00
2019-02-05T03:22:00.643Z,4.00
2019-02-05T03:25:07.128Z,4.00
2019-02-05T03:28:12.218Z,4.00
2019-02-05T03:31:17.399Z,4.00
2019-02-05T03:34:22.557Z,4.00
2019-02-05T03:37:27.882Z,3.90
2019-02-05T03:41:01.943Z,3.90
2019-02-05T03:44:06.973Z,3.90
2019-02-05T03:47:12.214Z,3.90
2019-02-05T03:50:17.134Z,3.90
2019-02-05T03:53:23.017Z,3.90
2019-02-05T03:57:07.541Z,3.90
2019-02-05T04:00:49.170Z,3.90
2019-02-05T04:04:29.743Z,3.90
2019-02-05T04:08:18.401Z,3.80
2019-02-05T04:12:06.831Z,3.80
2019-02-05T04:15:25.565Z,3.80
2019-02-05T04:18:56.260Z,3.70
2019-02-05T04:22:21.117Z,3.70
2019-02-05T04:26:06.224Z,3.70
2019-02-05T04:29:35.762Z,3.70
2019-02-05T04:33:12.949Z,3.70
2019-02-05T04:37:01.591Z,3.70
2019-02-05T04:40:48.413Z,3.60
2019-02-05T04:44:41.311Z,3.50
2019-02-05T04:48:43.772Z,3.50
2019-02-05T04:52:15.369Z,3.50
2019-02-05T04:55:43.410Z,3.40
2019-02-05T04:59:32.583Z,3.40
2019-02-05T05:03:08.573Z,3.40
2019-02-05T05:06:48.817Z,3.30
2019-02-05T05:09:58.247Z,3.30
2019-02-05T05:13:03.623Z,3.30
2019-02-05T05:16:08.545Z,3.30
2019-02-05T05:19:14.008Z,3.30
2019-02-05T05:22:19.228Z,3.40
2019-02-05T05:25:24.457Z,3.40
2019-02-05T05:28:29.926Z,3.40
2019-02-05T05:31:35.070Z,3.50
2019-02-05T05:34:40.087Z,3.50
2019-02-05T05:37:45.339Z,3.60
2019-02-05T05:40:50.173Z,3.60
2019-02-05T05:43:55.224Z,3.70
2019-02-05T05:47:00.336Z,3.80
2019-02-05T05:50:06.523Z,3.80
2019-02-05T05:53:11.857Z,3.80
2019-02-05T05:56:17.017Z,3.80
2019-02-05T05:59:22.057Z,3.80
2019-02-05T06:02:27.306Z,3.80
2019-02-05T06:05:32.385Z,3.70
2019-02-05T06:08:37.981Z,3.80
2019-02-05T06:11:43.025Z,3.70
2019-02-05T06:14:48.271Z,3.70
2019-02-05T06:17:53.421Z,3.70
2019-02-05T06:20:58.476Z,3.70
2019-02-05T06:24:05.188Z,3.70
2019-02-05T06:27:10.118Z,3.70
2019-02-05T06:30:16.050Z,3.80
2019-02-05T06:33:23.453Z,3.80
2019-02-05T06:36:27.628Z,3.90
2019-02-05T06:39:32.641Z,3.80
2019-02-05T06:42:37.514Z,3.80
2019-02-05T06:45:43.030Z,3.90
2019-02-05T06:48:48.214Z,3.90
2019-02-05T06:51:53.166Z,3.90
2019-02-05T06:54:58.190Z,3.90
2019-02-05T06:58:03.480Z,4.00
2019-02-05T07:01:08.484Z,4.00
2019-02-05T07:04:14.271Z,4.10
2019-02-05T07:07:19.378Z,4.20
2019-02-05T07:10:24.957Z,4.20
2019-02-05T07:13:30.035Z,4.30
2019-02-05T07:16:35.717Z,4.30
2019-02-05T07:19:40.745Z,4.30
2019-02-05T07:22:46.117Z,4.30
2019-02-05T07:25:51.356Z,4.20
2019-02-05T07:28:58.449Z,4.30
2019-02-05T07:32:03.146Z,4.20
2019-02-05T07:35:08.545Z,4.10
2019-02-05T07:38:13.587Z,4.10
2019-02-05T07:41:18.810Z,4.00
2019-02-05T07:44:24.347Z,3.90
2019-02-05T07:47:29.257Z,3.90
2019-02-05T07:50:34.141Z,3.90
2019-02-05T07:53:39.091Z,4.10
2019-02-05T07:56:44.241Z,4.20
2019-02-05T07:59:49.425Z,4.20
2019-02-05T08:02:54.517Z,4.10
2019-02-05T08:05:59.707Z,4.20
2019-02-05T08:09:07.544Z,4.30
2019-02-05T08:12:13.287Z,4.50
2019-02-05T08:15:20.609Z,4.60
2019-02-05T08:18:25.765Z,4.60
2019-02-05T08:21:31.129Z,4.60
2019-02-05T08:24:36.233Z,4.60
2019-02-05T08:27:41.424Z,4.60
2019-02-05T08:30:48.148Z,4.70
2019-02-05T08:33:53.066Z,4.80
2019-02-05T08:36:58.112Z,4.90
2019-02-05T08:40:04.055Z,4.90
2019-02-05T08:43:09.334Z,5.00
2019-02-05T08:46:14.523Z,5.10
2019-02-05T08:49:19.506Z,5.10
2019-02-05T08:52:24.611Z,5.20
2019-02-05T08:55:30.874Z,5.40
2019-02-05T08:58:36.033Z,5.50
2019-02-05T09:01:41.092Z,5.50
2019-02-05T09:04:45.996Z,5.50
2019-02-05T09:07:50.986Z,5.40
2019-02-05T09:10:55.986Z,5.40
2019-02-05T09:14:10.505Z,5.50
2019-02-05T09:17:08.005Z,5.60
2019-02-05T09:20:14.284Z,5.70
2019-02-05T09:23:19.548Z,5.90
2019-02-05T09:26:24.847Z,6.10
2019-02-05T09:29:33.532Z,6.20
2019-02-05T09:32:47.969Z,6.40
2019-02-05T09:35:53.282Z,6.40
2019-02-05T09:38:58.389Z,6.50
2019-02-05T09:42:03.490Z,6.60
2019-02-05T09:45:09.742Z,6.70
2019-02-05T09:48:14.797Z,6.80
2019-02-05T09:51:19.688Z,6.80
2019-02-05T09:54:24.677Z,6.90
2019-02-05T09:57:29.838Z,7.00
2019-02-05T10:00:37.334Z,7.10
2019-02-05T10:03:42.245Z,7.50
2019-02-05T10:06:50.000Z,8.10
2019-02-05T10:09:53.802Z,8.80
2019-02-05T10:12:58.936Z,9.80
2019-02-05T10:16:04.221Z,10.70
2019-02-05T10:19:09.216Z,12.70
2019-02-05T10:22:14.260Z,13.70
2019-02-05T10:25:19.326Z,14.20
2019-02-05T10:28:24.274Z,15.20
2019-02-05T10:31:29.261Z,15.20
2019-02-05T10:34:34.506Z,14.70
2019-02-05T10:37:39.745Z,14.30
2019-02-05T10:40:44.581Z,14.20
2019-02-05T10:43:49.607Z,16.20
2019-02-05T10:46:57.003Z,17.20
2019-02-05T10:50:01.879Z,18.00
2019-02-05T10:53:07.466Z,20.80
2019-02-05T10:56:12.552Z,23.70
2019-02-05T10:59:17.735Z,26.30
2019-02-05T11:02:22.717Z,28.00
2019-02-05T11:05:28.907Z,29.80
2019-02-05T11:08:33.833Z,30.40
2019-02-05T11:11:38.808Z,31.40
2019-02-05T11:14:43.795Z,32.00
2019-02-05T11:17:48.850Z,32.90
2019-02-05T11:20:54.281Z,34.20
2019-02-05T11:23:59.562Z,33.80
2019-02-05T11:27:05.035Z,32.90
2019-02-05T11:30:20.287Z,33.20
2019-02-05T11:33:20.736Z,33.60
2019-02-05T11:36:25.990Z,34.20
2019-02-05T11:39:31.359Z,33.30
2019-02-05T11:42:36.452Z,32.30
2019-02-05T11:45:41.634Z,30.50
2019-02-05T11:48:46.597Z,29.10
2019-02-05T11:51:51.484Z,26.80
2019-02-05T11:54:56.557Z,25.50
2019-02-05T11:58:01.592Z,22.80
2019-02-05T12:01:14.225Z,21.00
2019-02-05T12:04:19.301Z,19.80
2019-02-05T12:07:24.795Z,18.90
2019-02-05T12:10:29.994Z,18.40
2019-02-05T12:13:35.405Z,18.70
2019-02-05T12:16:40.397Z,22.30
2019-02-05T12:19:45.143Z,26.90
2019-02-05T12:22:50.490Z,30.20
2019-02-05T12:25:55.562Z,31.40
2019-02-05T12:29:00.362Z,32.10
2019-02-05T12:32:05.147Z,32.70
2019-02-05T12:35:10.484Z,33.30
2019-02-05T12:38:15.254Z,33.80
2019-02-05T12:41:20.162Z,31.90
2019-02-05T12:44:25.066Z,32.10
2019-02-05T12:47:29.797Z,31.00
2019-02-05T12:50:35.385Z,29.60
2019-02-05T12:53:40.932Z,28.80
2019-02-05T12:56:46.050Z,28.10
2019-02-05T12:59:50.866Z,27.50
2019-02-05T13:02:55.966Z,26.50
2019-02-05T13:06:00.674Z,27.80
2019-02-05T13:09:08.461Z,25.40
2019-02-05T13:12:13.157Z,26.10
2019-02-05T13:15:17.993Z,27.30
2019-02-05T13:18:22.751Z,25.30
2019-02-05T13:21:27.439Z,24.60
2019-02-05T13:24:32.274Z,25.70
2019-02-05T13:27:37.003Z,25.30
2019-02-05T13:30:42.249Z,23.90
2019-02-05T13:33:46.969Z,21.50
2019-02-05T13:36:52.125Z,21.30
2019-02-05T13:39:56.840Z,23.80
2019-02-05T13:43:01.861Z,24.60
2019-02-05T13:46:07.205Z,25.10
2019-02-05T13:49:12.850Z,24.80
2019-02-05T13:52:17.591Z,26.40
2019-02-05T13:55:24.512Z,27.30
2019-02-05T13:58:29.244Z,27.30
2019-02-05T14:01:33.986Z,26.90
2019-02-05T14:04:38.800Z,25.70
2019-02-05T14:07:43.572Z,25.20
2019-02-05T14:10:49.295Z,24.00
2019-02-05T14:13:54.088Z,21.90
2019-02-05T14:16:59.305Z,20.30
2019-02-05T14:20:04.886Z,18.30
2019-02-05T14:23:09.918Z,16.50
2019-02-05T14:26:14.786Z,15.10
2019-02-05T14:29:19.545Z,14.00
2019-02-05T14:32:24.256Z,13.10
2019-02-05T14:35:29.008Z,12.30
2019-02-05T14:38:33.767Z,11.70
2019-02-05T14:41:38.629Z,10.90
2019-02-05T14:44:43.315Z,10.50
2019-02-05T14:47:48.247Z,10.10
2019-02-05T14:50:53.197Z,9.70
2019-02-05T14:53:58.000Z,9.60
2019-02-05T14:57:02.736Z,9.50
2019-02-05T15:00:11.001Z,9.20
2019-02-05T15:03:16.279Z,8.90
2019-02-05T15:06:21.194Z,8.80
2019-02-05T15:09:25.898Z,8.60
2019-02-05T15:12:30.582Z,8.50
2019-02-05T15:15:35.521Z,8.30
2019-02-05T15:18:40.250Z,8.30
2019-02-05T15:21:45.065Z,7.80
2019-02-05T15:24:49.821Z,7.70
2019-02-05T15:27:54.540Z,7.50
2019-02-05T15:30:59.251Z,7.40
2019-02-05T15:34:08.924Z,7.50
2019-02-05T15:37:14.037Z,7.40
2019-02-05T16:17:51.989Z,5.70
2019-02-05T16:20:56.925Z,5.90
2019-02-05T16:24:02.003Z,6.00
2019-02-05T16:27:07.513Z,6.10
2019-02-05T16:30:15.994Z,6.10
2019-02-05T16:33:21.315Z,6.10
2019-02-05T16:36:26.278Z,6.20
2019-02-05T16:39:31.196Z,6.20
2019-02-05T16:42:36.137Z,6.20
2019-02-05T16:45:41.265Z,6.30
2019-02-05T16:48:46.295Z,6.30
2019-02-05T16:51:51.327Z,6.30
2019-02-05T16:54:56.688Z,6.20
2019-02-05T16:58:01.826Z,6.20
2019-02-05T17:01:07.362Z,6.20
2019-02-05T17:04:12.728Z,6.20
2019-02-05T17:07:17.689Z,6.20
2019-02-05T17:10:23.005Z,6.20
2019-02-05T17:13:28.146Z,6.20
2019-02-05T17:16:33.121Z,6.20
2019-02-05T17:19:38.228Z,6.20
2019-02-05T17:22:43.231Z,6.20
2019-02-05T17:25:48.334Z,6.20
2019-02-05T17:28:53.423Z,6.20
2019-02-05T17:31:58.421Z,6.10
2019-02-05T17:35:04.018Z,6.00
2019-02-05T17:38:10.596Z,6.00
2019-02-05T17:41:15.622Z,5.90
2019-02-05T17:44:20.611Z,5.80
2019-02-05T17:47:25.819Z,5.80
2019-02-05T17:50:31.001Z,5.70
2019-02-05T17:53:36.376Z,5.70
2019-02-05T17:56:41.590Z,5.60
2019-02-05T17:59:46.540Z,5.50
2019-02-05T18:02:51.977Z,5.50
2019-02-05T18:05:57.200Z,5.40
2019-02-05T18:09:02.329Z,5.40
2019-02-05T18:12:07.355Z,5.30
2019-02-05T18:15:21.931Z,5.20
2019-02-05T18:18:27.232Z,5.20
2019-02-05T18:21:32.392Z,5.10
2019-02-05T18:24:37.772Z,5.10
2019-02-05T18:27:42.797Z,4.90
2019-02-05T18:30:47.811Z,4.90
2019-02-05T18:33:52.939Z,4.90
2019-02-05T18:36:58.115Z,4.70
2019-02-05T18:40:03.151Z,4.70
2019-02-05T18:43:08.202Z,4.60
2019-02-05T18:46:13.341Z,4.60
2019-02-05T18:49:18.577Z,4.60
2019-02-05T18:52:23.724Z,4.50
2019-02-05T18:55:29.303Z,4.50
2019-02-05T18:58:34.356Z,4.50
2019-02-05T19:01:39.980Z,4.40
2019-02-05T19:04:48.250Z,4.40
2019-02-05T19:07:53.338Z,4.30
2019-02-05T19:10:58.290Z,4.30
2019-02-05T19:14:03.699Z,4.20
2019-02-05T19:17:08.849Z,4.20
2019-02-05T19:20:14.670Z,4.20
2019-02-05T19:23:19.778Z,4.20
2019-02-05T19:26:30.864Z,4.10
2019-02-05T19:29:35.856Z,4.10
2019-02-05T19:32:40.998Z,4.00
2019-02-05T19:35:45.873Z,4.00
2019-02-05T19:38:50.849Z,4.00
2019-02-05T19:41:55.868Z,4.00
2019-02-05T19:45:17.322Z,3.90
2019-02-05T19:48:31.532Z,3.80
2019-02-05T19:51:37.559Z,3.80
2019-02-05T19:54:42.758Z,3.80
2019-02-05T19:57:47.705Z,3.70
2019-02-05T20:00:52.938Z,3.70
2019-02-05T20:03:57.974Z,3.70
2019-02-05T20:07:02.957Z,3.70
2019-02-05T20:10:09.093Z,3.60
2019-02-05T20:13:14.138Z,3.50
2019-02-05T20:16:19.175Z,3.50
2019-02-05T20:19:24.982Z,3.50
2019-02-05T20:22:30.289Z,3.30
2019-02-05T20:25:35.448Z,3.30
2019-02-05T20:28:40.497Z,3.30
2019-02-05T20:31:45.764Z,3.30
2019-02-05T20:34:50.849Z,3.20
2019-02-05T20:37:55.794Z,3.10
2019-02-05T20:41:00.775Z,3.20
2019-02-05T20:44:05.887Z,3.10
2019-02-05T20:47:10.826Z,3.10
2019-02-05T20:50:16.462Z,3.20
2019-02-05T20:53:21.746Z,3.20
2019-02-05T20:56:26.781Z,3.10
2019-02-05T20:59:31.850Z,3.10
2019-02-05T21:02:36.956Z,3.10
2019-02-05T21:05:42.074Z,3.10
2019-02-05T21:08:47.021Z,3.00
2019-02-05T21:11:52.218Z,3.00
2019-02-05T21:14:57.524Z,2.90
2019-02-05T21:18:02.681Z,2.90
2019-02-05T21:21:07.935Z,2.90
2019-02-05T21:24:13.239Z,2.80
2019-02-05T21:27:18.243Z,2.80
2019-02-05T21:30:23.575Z,2.80
2019-02-05T21:33:28.810Z,2.80
2019-02-05T21:36:33.941Z,2.70
2019-02-05T21:39:38.934Z,2.70
2019-02-05T21:42:44.207Z,2.70
2019-02-05T21:45:49.162Z,2.70
2019-02-05T21:48:54.290Z,2.60
2019-02-05T21:51:59.284Z,2.60
2019-02-05T21:55:04.770Z,2.60
2019-02-05T21:58:19.526Z,2.50
2019-02-05T22:01:25.670Z,2.60
2019-02-05T22:04:31.071Z,2.60
2019-02-05T22:07:36.085Z,2.50
2019-02-05T22:10:41.159Z,2.50
2019-02-05T22:13:49.517Z,2.50
2019-02-05T22:16:54.287Z,2.50
2019-02-05T22:20:00.968Z,2.40
2019-02-05T22:23:06.551Z,2.40
2019-02-05T22:26:11.785Z,2.40
2019-02-05T22:29:16.992Z,2.40
2019-02-05T22:32:22.016Z,2.40
2019-02-05T22:35:27.492Z,2.30
2019-02-05T22:38:32.704Z,2.30
2019-02-05T22:41:37.981Z,2.30
2019-02-05T22:44:42.900Z,2.30
2019-02-05T22:47:48.009Z,2.20
2019-02-05T22:50:53.591Z,2.20
2019-02-05T22:53:58.488Z,2.10
2019-02-05T22:57:03.776Z,2.10
2019-02-05T23:00:33.502Z,2.00
2019-02-05T23:03:44.302Z,1.90
2019-02-05T23:07:06.360Z,1.90
2019-02-05T23:10:25.579Z,1.90
2019-02-05T23:13:30.543Z,1.80
2019-02-05T23:16:35.639Z,1.80
2019-02-05T23:19:40.924Z,1.80
2019-02-05T23:22:46.082Z,1.80
2019-02-05T23:26:11.614Z,1.80
2019-02-05T23:29:16.932Z,1.70
2019-02-05T23:32:21.975Z,1.80
2019-02-05T23:35:26.949Z,1.70
2019-02-05T23:38:32.263Z,1.70
2019-02-05T23:41:37.245Z,1.70
2019-02-05T23:44:42.249Z,1.70
2019-02-05T23:47:47.616Z,1.50
2019-02-05T23:50:52.641Z,1.30
2019-02-05T23:53:57.927Z,1.40
2019-02-05T23:57:02.955Z,1.50
